Time;durP1;ratioP1;P1;durP2;ratioP2;P2;SDS_P1;SDS_P2;PMS_P1;PMS_P2;Temp;Humidity;BMP_temperature;BMP_pressure;BME280_temperature;BME280_humidity;BME280_pressure;Samples;Min_cycle;Max_cycle;Signal;HPM_P1;HPM_P2
2024/03/18 00:02:16;;;;;;;21.70;11.52;;;8.60;99.90;;;;;;5053235;28;20392;-72
2024/03/18 00:04:42;;;;;;;19.65;11.65;;;8.50;99.90;;;;;;5071763;28;20040;-72
2024/03/18 00:07:08;;;;;;;20.08;11.73;;;8.50;99.90;;;;;;5053545;28;20036;-70
2024/03/18 00:09:34;;;;;;;19.80;12.07;;;8.50;99.90;;;;;;5071419;28;20173;-70
2024/03/18 00:12:00;;;;;;;22.13;12.45;;;8.60;99.90;;;;;;5052724;28;20562;-69
2024/03/18 00:14:25;;;;;;;16.98;11.93;;;8.50;99.90;;;;;;5071235;28;20041;-70
2024/03/18 00:16:51;;;;;;;19.70;12.27;;;8.50;99.90;;;;;;5053316;28;20105;-72
2024/03/18 00:19:17;;;;;;;18.08;11.15;;;8.60;99.90;;;;;;5071382;28;20032;-72
2024/03/18 00:21:42;;;;;;;19.83;11.57;;;8.60;99.90;;;;;;5071159;28;20043;-72
2024/03/18 00:24:08;;;;;;;19.63;11.15;;;8.50;99.90;;;;;;5053565;28;20040;-72
2024/03/18 00:26:34;;;;;;;20.85;11.85;;;8.50;99.90;;;;;;5071275;28;20044;-70
2024/03/18 00:28:59;;;;;;;18.85;11.32;;;8.60;99.90;;;;;;5053198;28;20056;-70
2024/03/18 00:31:25;;;;;;;18.65;11.35;;;8.60;99.90;;;;;;5071296;28;20489;-70
2024/03/18 00:33:51;;;;;;;18.83;11.85;;;8.60;99.90;;;;;;5052877;28;20058;-70
2024/03/18 00:36:16;;;;;;;20.67;11.75;;;8.60;99.90;;;;;;5071137;28;20041;-72
2024/03/18 00:38:42;;;;;;;16.27;10.50;;;8.50;99.90;;;;;;5053315;28;20036;-70
2024/03/18 00:43:52;;;;;;;19.05;11.15;;;8.60;99.90;;;;;;5070780;28;20040;-70
2024/03/18 00:46:18;;;;;;;19.58;11.93;;;8.60;99.90;;;;;;5071282;28;20046;-70
2024/03/18 00:48:44;;;;;;;16.10;11.05;;;8.50;99.90;;;;;;5053081;28;20040;-72
2024/03/18 00:51:11;;;;;;;18.67;11.55;;;8.50;99.90;;;;;;5053316;28;20117;-72
2024/03/18 00:53:36;;;;;;;17.92;11.52;;;8.60;99.90;;;;;;5052925;28;20472;-71
2024/03/18 00:56:08;;;;;;;21.67;12.13;;;8.50;99.90;;;;;;5070878;28;20115;-70
2024/03/18 00:58:35;;;;;;;16.85;11.65;;;8.50;99.90;;;;;;5071296;28;20041;-70
2024/03/18 01:01:02;;;;;;;22.15;12.55;;;8.50;99.90;;;;;;5053097;28;20040;-70
2024/03/18 01:03:28;;;;;;;21.05;12.23;;;8.50;99.90;;;;;;5053014;28;20438;-72
2024/03/18 01:05:54;;;;;;;19.10;10.90;;;8.50;99.90;;;;;;5071139;28;20032;-72
2024/03/18 01:08:19;;;;;;;21.70;12.73;;;8.50;99.90;;;;;;5070749;28;20428;-70
2024/03/18 01:10:45;;;;;;;21.02;12.38;;;8.50;99.90;;;;;;5070616;28;20496;-70
2024/03/18 01:13:13;;;;;;;19.15;12.02;;;8.50;99.90;;;;;;5052561;28;20044;-72
2024/03/18 01:15:39;;;;;;;20.55;12.32;;;8.50;99.90;;;;;;5070993;28;20066;-73
2024/03/18 01:18:05;;;;;;;20.00;12.07;;;8.40;99.90;;;;;;5070978;28;20037;-70
2024/03/18 01:20:33;;;;;;;21.58;12.25;;;8.40;99.90;;;;;;5052770;28;20089;-70
2024/03/18 01:23:02;;;;;;;20.50;12.77;;;8.40;99.90;;;;;;5052697;28;20040;-71
2024/03/18 01:25:29;;;;;;;20.90;11.98;;;8.40;99.90;;;;;;5074462;28;20070;-70
2024/03/18 01:27:55;;;;;;;19.30;11.68;;;8.40;99.90;;;;;;5074440;28;20535;-72
2024/03/18 01:30:21;;;;;;;21.38;12.20;;;8.40;99.90;;;;;;5074386;28;20059;-70
2024/03/18 01:32:47;;;;;;;20.27;12.40;;;8.30;99.90;;;;;;5074077;28;20208;-72
2024/03/18 01:35:13;;;;;;;20.40;11.30;;;8.30;99.90;;;;;;5074469;28;20097;-73
2024/03/18 01:37:39;;;;;;;21.33;12.88;;;8.30;99.90;;;;;;5074111;28;20048;-72
2024/03/18 01:40:07;;;;;;;19.50;12.38;;;8.30;99.90;;;;;;5074141;28;20039;-71
2024/03/18 01:42:34;;;;;;;22.30;12.30;;;8.30;99.90;;;;;;5073928;28;20070;-73
2024/03/18 01:45:00;;;;;;;19.45;12.00;;;8.30;99.90;;;;;;5068856;28;20051;-72
2024/03/18 01:47:26;;;;;;;19.35;11.73;;;8.30;99.90;;;;;;5073470;28;20048;-70
2024/03/18 01:49:52;;;;;;;21.38;12.18;;;8.30;99.90;;;;;;5073911;28;20044;-70
2024/03/18 01:52:19;;;;;;;20.42;13.30;;;8.30;99.90;;;;;;5055542;28;20047;-70
2024/03/18 01:54:45;;;;;;;19.17;11.40;;;8.20;99.90;;;;;;5056078;28;20079;-70
2024/03/18 01:57:11;;;;;;;26.25;12.73;;;8.30;99.90;;;;;;5073898;28;20076;-70
2024/03/18 01:59:36;;;;;;;20.70;12.68;;;8.30;99.90;;;;;;5055718;28;20041;-70
2024/03/18 02:02:02;;;;;;;21.95;11.95;;;8.30;99.90;;;;;;5055721;28;20044;-72
2024/03/18 02:04:28;;;;;;;24.08;12.38;;;8.30;99.90;;;;;;5073869;28;20115;-72
2024/03/18 02:06:54;;;;;;;22.55;12.35;;;8.20;99.90;;;;;;5073479;28;20129;-70
2024/03/18 02:09:20;;;;;;;22.45;13.02;;;8.20;99.90;;;;;;5055772;28;20068;-70
2024/03/18 02:11:46;;;;;;;22.77;13.48;;;8.20;99.90;;;;;;5073232;28;20496;-70
2024/03/18 02:14:15;;;;;;;28.52;13.35;;;8.10;99.90;;;;;;5073850;28;20058;-70
2024/03/18 02:16:45;;;;;;;19.45;12.95;;;8.10;99.90;;;;;;5055590;28;20110;-70
2024/03/18 02:19:11;;;;;;;23.00;12.95;;;8.10;99.90;;;;;;5073240;28;20048;-70
2024/03/18 02:21:36;;;;;;;22.67;13.35;;;8.00;99.90;;;;;;5073113;28;20113;-71
2024/03/18 02:24:03;;;;;;;20.98;12.48;;;8.10;99.90;;;;;;5073685;28;20028;-70
2024/03/18 02:26:35;;;;;;;24.63;14.23;;;8.00;99.90;;;;;;5055277;28;20044;-72
2024/03/18 02:29:00;;;;;;;23.52;13.55;;;8.00;99.90;;;;;;5073370;28;20079;-70
2024/03/18 02:31:26;;;;;;;20.98;13.60;;;8.00;99.90;;;;;;5055481;28;20472;-72
2024/03/18 02:33:52;;;;;;;20.92;13.65;;;8.00;99.90;;;;;;5072804;28;20224;-70
2024/03/18 02:36:18;;;;;;;23.25;13.25;;;8.00;99.90;;;;;;5072165;28;20037;-72
2024/03/18 02:38:44;;;;;;;22.25;13.85;;;7.90;99.90;;;;;;5055054;28;20077;-72
2024/03/18 02:41:11;;;;;;;22.38;14.95;;;8.00;99.90;;;;;;5073355;28;20048;-71
2024/03/18 02:43:36;;;;;;;26.65;14.00;;;8.00;99.90;;;;;;5054652;28;20036;-71
2024/03/18 02:46:04;;;;;;;24.15;14.38;;;8.00;99.90;;;;;;5073153;28;20454;-71
2024/03/18 02:48:30;;;;;;;24.70;13.98;;;8.00;99.90;;;;;;5054967;28;20526;-72
2024/03/18 02:50:56;;;;;;;27.52;14.80;;;8.00;99.90;;;;;;5055104;28;20060;-72
2024/03/18 02:53:22;;;;;;;23.00;13.75;;;8.00;99.90;;;;;;5054561;28;20040;-71
2024/03/18 02:55:48;;;;;;;26.58;15.25;;;8.00;99.90;;;;;;5072885;28;20047;-72
2024/03/18 02:58:13;;;;;;;21.02;13.63;;;7.90;99.90;;;;;;5054833;28;20400;-71
2024/03/18 03:00:39;;;;;;;26.40;14.57;;;7.90;99.90;;;;;;5072527;28;20036;-71
2024/03/18 03:03:05;;;;;;;25.77;15.40;;;8.00;99.90;;;;;;5072271;28;20040;-72
2024/03/18 03:05:30;;;;;;;28.33;15.38;;;8.00;99.90;;;;;;5054663;28;20076;-72
2024/03/18 03:07:56;;;;;;;25.35;14.40;;;8.00;99.90;;;;;;5054668;28;20037;-72
2024/03/18 03:10:22;;;;;;;21.88;13.55;;;8.00;99.90;;;;;;5054530;28;20121;-72
2024/03/18 03:12:48;;;;;;;22.48;14.15;;;8.00;99.90;;;;;;5072230;28;20102;-72
2024/03/18 03:15:14;;;;;;;28.65;15.18;;;7.90;99.90;;;;;;5072472;28;20064;-72
2024/03/18 03:17:40;;;;;;;23.20;14.77;;;8.00;99.90;;;;;;5037814;28;20047;-72
2024/03/18 03:20:08;;;;;;;26.70;15.50;;;7.90;99.90;;;;;;5054294;28;20127;-72
2024/03/18 03:22:35;;;;;;;26.08;15.45;;;7.90;99.90;;;;;;5071927;28;20036;-72
2024/03/18 03:25:01;;;;;;;25.08;14.85;;;8.00;99.90;;;;;;5054416;28;20067;-72
2024/03/18 03:27:27;;;;;;;27.35;15.48;;;8.00;99.90;;;;;;5054206;28;20123;-72
2024/03/18 03:29:53;;;;;;;31.17;15.05;;;7.90;99.90;;;;;;5071912;28;20044;-72
2024/03/18 03:32:19;;;;;;;25.05;14.95;;;7.90;99.90;;;;;;5071563;28;20102;-72
2024/03/18 03:34:45;;;;;;;26.75;15.30;;;7.90;99.90;;;;;;5054249;28;20040;-71
2024/03/18 03:37:10;;;;;;;26.77;15.75;;;7.90;99.90;;;;;;5037345;28;20240;-71
2024/03/18 03:39:36;;;;;;;25.52;16.50;;;7.90;99.90;;;;;;5053953;28;20047;-72
2024/03/18 03:42:04;;;;;;;34.05;16.00;;;7.90;99.90;;;;;;5053512;28;20401;-72
2024/03/18 03:44:30;;;;;;;25.33;14.25;;;8.00;99.90;;;;;;5071886;28;20037;-71
2024/03/18 03:46:56;;;;;;;24.92;15.25;;;7.90;99.90;;;;;;5037416;28;20496;-72
2024/03/18 03:49:22;;;;;;;27.10;16.23;;;7.90;99.90;;;;;;5053712;28;20047;-72
2024/03/18 03:51:48;;;;;;;28.63;14.60;;;7.90;99.90;;;;;;5053479;28;20041;-72
2024/03/18 03:54:14;;;;;;;29.02;15.38;;;7.90;99.90;;;;;;5053956;28;20048;-72
2024/03/18 03:56:40;;;;;;;26.83;16.50;;;8.00;99.90;;;;;;5053773;28;20044;-72
2024/03/18 03:59:05;;;;;;;26.13;16.30;;;8.00;99.90;;;;;;5071581;28;20044;-72
2024/03/18 04:01:31;;;;;;;26.38;15.05;;;8.00;99.90;;;;;;5053697;28;20039;-71
2024/03/18 04:03:57;;;;;;;25.75;15.68;;;7.90;99.90;;;;;;5053379;28;20044;-72
2024/03/18 04:06:23;;;;;;;29.42;16.42;;;7.90;99.90;;;;;;5053579;28;20040;-71
2024/03/18 04:08:49;;;;;;;28.90;15.93;;;8.00;99.90;;;;;;5036955;28;20501;-72
2024/03/18 04:11:15;;;;;;;23.00;15.20;;;8.00;99.90;;;;;;5053676;28;20047;-72
2024/03/18 04:13:41;;;;;;;29.60;15.98;;;8.00;99.90;;;;;;5053130;28;20050;-72
2024/03/18 04:16:07;;;;;;;26.42;15.75;;;8.00;99.90;;;;;;5071305;28;20040;-71
2024/03/18 04:18:35;;;;;;;26.95;15.68;;;8.00;99.90;;;;;;5053466;28;20655;-71
2024/03/18 04:21:03;;;;;;;26.17;15.93;;;8.00;99.90;;;;;;5053270;28;20056;-72
2024/03/18 04:23:31;;;;;;;28.77;15.13;;;8.00;99.90;;;;;;5071123;28;20086;-71
2024/03/18 04:25:57;;;;;;;24.95;16.63;;;8.00;99.90;;;;;;5071442;28;20547;-71
2024/03/18 04:28:22;;;;;;;29.90;17.05;;;8.00;99.90;;;;;;5053291;28;20051;-71
2024/03/18 04:30:48;;;;;;;27.35;16.83;;;8.00;99.90;;;;;;5053070;28;20504;-71
2024/03/18 04:33:14;;;;;;;28.58;15.05;;;7.90;99.90;;;;;;5052989;28;20041;-72
2024/03/18 04:35:39;;;;;;;29.38;17.60;;;7.90;99.90;;;;;;5071395;28;20044;-72
2024/03/18 04:38:05;;;;;;;27.27;15.80;;;8.00;99.90;;;;;;5071470;28;20037;-72
2024/03/18 04:40:31;;;;;;;24.90;15.55;;;8.00;99.90;;;;;;5053305;28;20146;-71
2024/03/18 04:42:56;;;;;;;27.92;16.98;;;8.00;99.90;;;;;;5070769;28;20037;-72
2024/03/18 04:45:23;;;;;;;29.50;16.02;;;8.00;99.90;;;;;;5053251;28;20120;-72
2024/03/18 04:47:53;;;;;;;29.90;14.85;;;8.00;99.90;;;;;;5053191;28;20040;-72
2024/03/18 04:50:24;;;;;;;24.50;15.73;;;8.00;99.90;;;;;;5053315;28;20036;-72
2024/03/18 04:52:51;;;;;;;26.90;15.88;;;7.90;99.90;;;;;;5070860;28;20037;-72
2024/03/18 04:55:18;;;;;;;26.80;15.98;;;8.00;99.90;;;;;;5053193;28;20041;-71
2024/03/18 04:57:44;;;;;;;28.88;16.13;;;8.00;99.90;;;;;;5052924;28;20033;-72
2024/03/18 05:00:14;;;;;;;29.65;16.48;;;8.00;99.90;;;;;;5074238;28;20394;-72
2024/03/18 05:02:43;;;;;;;28.02;15.82;;;8.00;99.90;;;;;;5056671;28;20033;-72
2024/03/18 05:05:12;;;;;;;31.63;15.90;;;8.00;99.90;;;;;;5056940;28;20047;-72
2024/03/18 05:07:37;;;;;;;27.88;15.93;;;8.00;99.90;;;;;;5056951;28;20127;-72
2024/03/18 05:10:04;;;;;;;26.63;15.68;;;8.00;99.90;;;;;;5040028;28;20123;-72
2024/03/18 05:12:30;;;;;;;30.48;18.20;;;8.00;99.90;;;;;;5074259;28;20044;-72
2024/03/18 05:14:57;;;;;;;31.58;17.95;;;8.00;99.90;;;;;;5056783;28;20047;-72
2024/03/18 05:17:24;;;;;;;28.48;16.50;;;8.00;99.90;;;;;;5074624;28;20041;-72
2024/03/18 05:19:50;;;;;;;26.23;16.40;;;8.00;99.90;;;;;;5040218;28;20049;-72
2024/03/18 05:22:15;;;;;;;30.45;18.02;;;7.90;99.90;;;;;;5056492;28;20054;-72
2024/03/18 05:24:45;;;;;;;29.48;16.38;;;7.90;99.90;;;;;;5074506;28;20499;-72
2024/03/18 05:27:15;;;;;;;29.17;17.60;;;7.90;99.90;;;;;;5083012;22;20090;-69
2024/03/18 05:29:41;;;;;;;31.65;17.85;;;8.00;99.90;;;;;;5076641;28;20044;-69
2024/03/18 05:32:10;;;;;;;33.28;17.65;;;7.90;99.90;;;;;;5094443;28;20036;-70
2024/03/18 05:34:37;;;;;;;32.00;18.90;;;8.00;99.90;;;;;;5076646;28;20048;-70
2024/03/18 05:37:03;;;;;;;30.52;17.60;;;8.00;99.90;;;;;;5094322;28;20491;-70
2024/03/18 05:39:32;;;;;;;29.25;17.45;;;8.00;99.90;;;;;;5093642;28;20035;-70
2024/03/18 05:42:02;;;;;;;33.53;17.83;;;7.90;99.90;;;;;;5094226;28;20036;-71
2024/03/18 05:44:27;;;;;;;31.23;17.45;;;8.10;99.90;;;;;;5060255;28;20034;-68
2024/03/18 05:46:53;;;;;;;30.23;16.80;;;7.90;99.90;;;;;;5094511;28;20047;-68
2024/03/18 05:49:19;;;;;;;30.60;18.33;;;7.90;99.90;;;;;;5094170;28;20118;-68
2024/03/18 05:51:48;;;;;;;32.38;17.40;;;8.10;99.90;;;;;;5094499;28;20515;-69
2024/03/18 05:54:15;;;;;;;32.45;17.30;;;8.00;99.90;;;;;;5095118;28;20085;-69
2024/03/18 05:56:41;;;;;;;37.42;17.73;;;8.00;99.90;;;;;;5094511;28;20040;-69
2024/03/18 05:59:06;;;;;;;33.47;19.40;;;8.10;99.90;;;;;;5076511;28;20042;-70
2024/03/18 06:01:32;;;;;;;35.53;18.30;;;8.00;99.90;;;;;;5095198;28;20433;-69
2024/03/18 06:03:58;;;;;;;31.98;18.08;;;8.00;99.90;;;;;;5094499;28;20427;-69
2024/03/18 06:06:24;;;;;;;39.38;19.08;;;8.10;99.90;;;;;;5076545;28;20043;-69
2024/03/18 06:08:49;;;;;;;32.45;18.20;;;8.00;99.90;;;;;;5094449;28;20119;-69
2024/03/18 06:11:15;;;;;;;32.80;17.98;;;8.00;99.90;;;;;;5093756;28;20181;-70
2024/03/18 06:13:40;;;;;;;31.67;18.58;;;8.10;99.90;;;;;;5093896;28;20035;-69
2024/03/18 06:16:06;;;;;;;34.60;19.67;;;8.00;99.90;;;;;;5094019;28;20043;-70
2024/03/18 06:18:35;;;;;;;33.30;17.77;;;8.10;99.90;;;;;;5093921;28;20412;-70
2024/03/18 06:21:01;;;;;;;35.72;18.55;;;8.10;99.90;;;;;;5093619;28;20055;-70
2024/03/18 06:23:27;;;;;;;37.63;19.02;;;7.90;99.90;;;;;;5093326;28;20420;-68
2024/03/18 06:25:59;;;;;;;34.00;18.95;;;8.10;99.90;;;;;;5093825;28;20086;-68
2024/03/18 06:28:31;;;;;;;35.45;18.95;;;8.10;99.90;;;;;;5093524;28;20032;-69
2024/03/18 06:30:57;;;;;;;44.83;18.23;;;8.10;99.90;;;;;;5093470;28;20046;-70
2024/03/18 06:33:24;;;;;;;33.58;18.95;;;8.00;99.90;;;;;;5093103;28;20139;-70
2024/03/18 06:35:53;;;;;;;34.83;19.25;;;8.10;99.90;;;;;;5093635;28;20066;-70
2024/03/18 06:38:23;;;;;;;37.67;18.55;;;8.10;99.90;;;;;;5093515;28;20028;-70
2024/03/18 06:40:49;;;;;;;35.22;19.25;;;8.00;99.90;;;;;;5093112;28;20119;-70
2024/03/18 06:43:15;;;;;;;40.47;19.58;;;8.00;99.90;;;;;;5095593;28;20111;-69
2024/03/18 06:45:41;;;;;;;35.15;18.92;;;8.10;99.90;;;;;;5074362;28;20492;-70
2024/03/18 06:48:07;;;;;;;33.40;19.10;;;8.10;99.90;;;;;;5075075;28;20081;-69
2024/03/18 06:50:37;;;;;;;34.38;19.42;;;8.10;99.90;;;;;;5093129;28;20071;-70
2024/03/18 06:53:03;;;;;;;31.73;19.60;;;8.00;99.90;;;;;;5092546;28;20036;-76
2024/03/18 06:55:33;;;;;;;34.20;19.70;;;7.90;99.90;;;;;;5072725;28;20028;-75
2024/03/18 06:57:59;;;;;;;34.00;19.15;;;8.00;99.90;;;;;;5073136;28;20043;-75
2024/03/18 07:00:25;;;;;;;40.17;18.98;;;7.90;99.90;;;;;;5072444;28;20052;-75
2024/03/18 07:02:52;;;;;;;34.97;19.20;;;8.00;99.90;;;;;;5072113;28;20055;-75
2024/03/18 07:05:18;;;;;;;43.20;21.05;;;8.00;99.90;;;;;;5072391;28;20512;-75
2024/03/18 07:07:44;;;;;;;37.60;20.23;;;7.90;99.90;;;;;;5072320;28;20044;-75
2024/03/18 07:10:11;;;;;;;37.65;20.33;;;8.10;99.90;;;;;;5073329;28;20040;-75
2024/03/18 07:12:44;;;;;;;43.13;20.88;;;7.90;99.90;;;;;;5092196;28;20040;-75
2024/03/18 07:15:11;;;;;;;40.60;21.17;;;8.00;99.90;;;;;;5074635;28;20403;-75
2024/03/18 07:17:40;;;;;;;43.72;21.50;;;8.10;99.90;;;;;;5074120;28;20036;-75
2024/03/18 07:20:11;;;;;;;37.78;20.05;;;8.10;99.90;;;;;;5074171;28;20133;-75
2024/03/18 07:22:39;;;;;;;36.80;20.63;;;8.10;99.90;;;;;;5073516;28;20046;-75
2024/03/18 07:25:09;;;;;;;36.13;20.38;;;8.20;99.90;;;;;;5092270;28;20507;-75
2024/03/18 07:27:38;;;;;;;43.55;22.13;;;8.20;99.90;;;;;;5092169;28;20048;-75
2024/03/18 07:30:07;;;;;;;39.05;20.38;;;8.10;99.90;;;;;;5092303;28;20044;-75
2024/03/18 07:32:33;;;;;;;45.92;22.33;;;8.20;99.90;;;;;;5091903;28;20557;-75
2024/03/18 07:34:59;;;;;;;40.03;21.38;;;8.20;99.90;;;;;;5092254;28;20126;-75
2024/03/18 07:37:25;;;;;;;46.65;23.42;;;8.30;99.90;;;;;;5073980;28;20040;-75
2024/03/18 07:39:50;;;;;;;43.78;23.92;;;8.20;99.90;;;;;;5073690;28;20039;-75
2024/03/18 07:42:17;;;;;;;46.72;23.05;;;8.10;99.90;;;;;;5073296;28;20039;-75
2024/03/18 07:44:43;;;;;;;49.35;24.63;;;8.20;99.90;;;;;;5073802;28;20113;-75
2024/03/18 07:47:09;;;;;;;46.13;23.15;;;8.30;99.90;;;;;;5074050;28;20040;-75
2024/03/18 07:49:38;;;;;;;51.53;23.75;;;8.30;99.90;;;;;;5057207;28;20441;-75
2024/03/18 07:52:05;;;;;;;49.40;23.80;;;8.40;99.90;;;;;;5073535;28;20043;-75
2024/03/18 07:54:32;;;;;;;53.55;24.75;;;8.40;99.90;;;;;;5092107;28;20050;-75
2024/03/18 07:56:58;;;;;;;43.15;22.00;;;8.40;99.90;;;;;;5091682;28;20040;-75
2024/03/18 07:59:24;;;;;;;55.05;25.60;;;8.30;99.90;;;;;;5073480;28;20036;-74
2024/03/18 08:01:50;;;;;;;47.28;24.63;;;8.20;99.90;;;;;;5073309;28;20040;-74
2024/03/18 08:04:16;;;;;;;53.80;24.17;;;8.20;99.90;;;;;;5073534;28;20036;-74
2024/03/18 08:06:46;;;;;;;50.08;24.08;;;8.30;99.90;;;;;;5073648;28;20101;-74
2024/03/18 08:09:17;;;;;;;48.28;24.48;;;8.40;99.90;;;;;;5074075;28;20123;-74
2024/03/18 08:11:47;;;;;;;46.30;22.67;;;8.30;99.90;;;;;;5073346;28;20399;-74
2024/03/18 08:14:13;;;;;;;54.88;25.90;;;8.40;99.90;;;;;;5091899;28;20093;-75
2024/03/18 08:16:40;;;;;;;49.08;24.40;;;8.30;99.90;;;;;;5091408;28;20105;-75
2024/03/18 08:19:06;;;;;;;50.85;26.23;;;8.30;99.90;;;;;;5091218;28;20115;-74
2024/03/18 08:21:32;;;;;;;54.58;26.80;;;8.50;99.90;;;;;;5056940;28;20075;-74
2024/03/18 08:23:58;;;;;;;49.25;25.27;;;8.50;99.90;;;;;;5072847;28;20043;-74
2024/03/18 08:26:25;;;;;;;54.17;23.83;;;8.50;99.90;;;;;;5091628;28;20044;-75
2024/03/18 08:28:51;;;;;;;56.03;25.23;;;8.40;99.90;;;;;;5073097;28;20039;-75
2024/03/18 08:31:17;;;;;;;54.65;24.88;;;8.30;99.90;;;;;;5073445;28;20035;-75
2024/03/18 08:33:42;;;;;;;59.50;24.77;;;8.50;99.90;;;;;;5072202;28;20092;-75
2024/03/18 08:36:08;;;;;;;50.92;25.48;;;8.60;99.90;;;;;;5056604;28;20035;-75
2024/03/18 08:38:34;;;;;;;49.38;24.77;;;8.40;99.90;;;;;;5091177;28;20584;-75
2024/03/18 08:40:59;;;;;;;49.30;25.33;;;8.60;99.90;;;;;;5091410;28;20399;-75
2024/03/18 08:43:25;;;;;;;50.92;24.13;;;8.50;99.90;;;;;;5072845;28;20078;-75
2024/03/18 08:45:56;;;;;;;54.83;24.58;;;8.60;99.90;;;;;;5073248;28;20578;-75
2024/03/18 08:48:22;;;;;;;65.22;26.58;;;8.60;99.90;;;;;;5073335;28;20047;-76
2024/03/18 08:50:48;;;;;;;62.55;26.17;;;8.60;99.90;;;;;;5072874;28;20036;-75
2024/03/18 08:53:14;;;;;;;50.15;23.15;;;8.70;99.90;;;;;;5072562;28;20028;-75
2024/03/18 08:55:41;;;;;;;52.65;25.73;;;8.60;99.90;;;;;;5091269;28;20032;-73
2024/03/18 08:58:07;;;;;;;51.42;26.83;;;8.80;99.90;;;;;;5073190;28;20040;-73
2024/03/18 09:00:33;;;;;;;57.70;26.45;;;8.60;99.90;;;;;;5072779;28;20131;-73
2024/03/18 09:02:59;;;;;;;53.60;25.98;;;8.70;99.90;;;;;;5072458;28;20047;-75
2024/03/18 09:05:24;;;;;;;64.18;27.95;;;8.80;99.90;;;;;;5090830;28;20032;-75
2024/03/18 09:07:50;;;;;;;59.67;27.35;;;8.60;99.90;;;;;;5072922;28;20086;-74
2024/03/18 09:10:16;;;;;;;64.35;27.88;;;8.70;99.90;;;;;;5055938;28;20044;-73
2024/03/18 09:12:42;;;;;;;55.50;26.90;;;8.60;99.90;;;;;;5072595;28;20052;-73
2024/03/18 09:15:08;;;;;;;58.00;26.55;;;8.60;99.90;;;;;;5056104;28;20036;-73
2024/03/18 09:17:34;;;;;;;64.03;27.77;;;8.80;99.90;;;;;;5090821;28;20048;-73
2024/03/18 09:19:59;;;;;;;69.97;28.48;;;8.70;99.90;;;;;;5090791;28;20553;-73
2024/03/18 09:22:25;;;;;;;64.93;26.77;;;8.80;99.90;;;;;;5090372;28;20036;-73
2024/03/18 09:24:51;;;;;;;54.13;27.02;;;8.70;99.90;;;;;;5091325;28;20032;-73
2024/03/18 09:27:17;;;;;;;67.82;30.08;;;8.80;99.90;;;;;;5072273;28;20044;-73
2024/03/18 09:29:43;;;;;;;64.10;28.63;;;8.90;99.90;;;;;;5071373;28;20044;-73
2024/03/18 09:32:09;;;;;;;56.10;27.10;;;9.10;99.90;;;;;;5071107;28;20044;-73
2024/03/18 09:34:35;;;;;;;66.97;29.25;;;9.20;99.90;;;;;;5089843;28;20036;-75
2024/03/18 09:37:00;;;;;;;57.40;27.70;;;9.20;99.90;;;;;;5071552;28;20557;-77
2024/03/18 09:39:26;;;;;;;65.18;29.58;;;9.10;99.90;;;;;;5071573;28;20037;-76
2024/03/18 09:41:53;;;;;;;62.25;26.80;;;9.20;99.90;;;;;;5089653;28;20079;-75
2024/03/18 09:44:19;;;;;;;60.13;27.92;;;9.30;99.90;;;;;;5089948;28;20062;-76
2024/03/18 09:46:46;;;;;;;65.93;29.25;;;9.30;99.90;;;;;;5093060;28;20077;-73
2024/03/18 09:49:16;;;;;;;63.72;27.25;;;9.40;99.90;;;;;;5092704;28;20519;-73
2024/03/18 09:51:45;;;;;;;64.78;27.90;;;9.50;99.90;;;;;;5092334;28;20050;-73
2024/03/18 09:54:18;;;;;;;58.05;26.27;;;9.50;99.90;;;;;;5075611;28;20508;-76
2024/03/18 09:57:01;;;;;;;55.65;26.45;;;9.40;99.90;;;;;;5075364;28;20526;-75
2024/03/18 09:59:27;;;;;;;61.15;27.27;;;9.50;99.90;;;;;;5056333;28;20127;-75
2024/03/18 10:01:53;;;;;;;55.55;26.98;;;9.40;99.90;;;;;;5089648;28;20166;-76
2024/03/18 10:04:19;;;;;;;57.15;24.77;;;9.60;99.90;;;;;;5073838;28;20040;-75
2024/03/18 10:06:45;;;;;;;57.33;28.55;;;9.50;99.90;;;;;;5074586;28;20089;-75
2024/03/18 10:09:12;;;;;;;56.13;27.73;;;9.50;99.90;;;;;;5074309;28;20131;-75
2024/03/18 10:11:38;;;;;;;46.97;25.52;;;9.50;99.90;;;;;;5074296;28;20517;-75
2024/03/18 10:14:03;;;;;;;49.20;26.48;;;9.70;99.90;;;;;;5074882;28;20036;-75
2024/03/18 10:16:29;;;;;;;51.25;26.08;;;9.70;99.90;;;;;;5092556;28;20108;-75
2024/03/18 10:18:55;;;;;;;51.55;26.02;;;9.60;99.90;;;;;;5074529;28;20113;-75
2024/03/18 10:21:26;;;;;;;59.13;26.73;;;9.70;99.90;;;;;;5074320;28;20067;-76
2024/03/18 10:23:54;;;;;;;44.53;23.20;;;9.60;99.90;;;;;;5073961;28;20048;-75
2024/03/18 10:26:20;;;;;;;49.90;26.85;;;9.70;99.90;;;;;;5074328;28;20105;-75
2024/03/18 10:28:46;;;;;;;46.25;23.73;;;9.70;99.90;;;;;;5053566;28;1131502;-76
2024/03/18 10:31:19;;;;;;;54.35;24.05;;;9.70;99.90;;;;;;5075352;28;20055;-75
2024/03/18 10:33:46;;;;;;;52.67;24.80;;;9.80;99.90;;;;;;5093226;28;20097;-76
2024/03/18 10:36:26;;;;;;;50.83;25.67;;;9.80;99.90;;;;;;5075355;28;20086;-75
2024/03/18 10:39:07;;;;;;;49.72;23.98;;;9.80;99.90;;;;;;5074907;28;20040;-74
2024/03/18 10:41:38;;;;;;;51.13;25.60;;;9.80;99.90;;;;;;5074899;28;20035;-74
2024/03/18 10:44:21;;;;;;;50.38;26.20;;;9.80;99.90;;;;;;5075344;28;20398;-74
2024/03/18 10:46:48;;;;;;;51.95;25.33;;;9.90;99.90;;;;;;5075119;28;20032;-74
2024/03/18 10:49:18;;;;;;;45.60;24.85;;;9.90;99.90;;;;;;5074801;28;20044;-74
2024/03/18 10:51:50;;;;;;;52.78;26.67;;;9.90;99.90;;;;;;5074201;28;20040;-74
2024/03/18 10:54:17;;;;;;;49.80;25.92;;;9.80;99.90;;;;;;5058355;28;20044;-74
2024/03/18 10:56:47;;;;;;;51.53;23.92;;;10.00;99.90;;;;;;5073810;28;20032;-74
2024/03/18 10:59:15;;;;;;;48.63;25.15;;;9.90;99.90;;;;;;5074552;28;20491;-74
2024/03/18 11:01:42;;;;;;;58.42;27.27;;;10.00;99.90;;;;;;5057549;28;20383;-74
2024/03/18 11:04:28;;;;;;;48.03;23.52;;;10.00;99.90;;;;;;5092977;28;20415;-74
2024/03/18 11:06:57;;;;;;;50.92;25.55;;;10.00;99.90;;;;;;5057737;28;20048;-74
2024/03/18 11:09:24;;;;;;;61.28;25.98;;;10.00;99.90;;;;;;5074319;28;20036;-74
2024/03/18 11:11:50;;;;;;;52.97;26.65;;;10.00;99.90;;;;;;5074180;28;20384;-74
2024/03/18 11:14:24;;;;;;;50.45;26.42;;;10.00;99.90;;;;;;5092605;28;20476;-74
2024/03/18 11:16:51;;;;;;;47.30;24.00;;;10.00;99.90;;;;;;5074043;28;20036;-74
2024/03/18 11:19:18;;;;;;;54.97;25.17;;;10.10;99.90;;;;;;5073986;28;20385;-74
2024/03/18 11:21:44;;;;;;;51.97;25.42;;;10.10;99.90;;;;;;5092222;28;20040;-74
2024/03/18 11:24:22;;;;;;;54.50;26.70;;;10.00;99.90;;;;;;5092538;28;20089;-74
2024/03/18 11:26:56;;;;;;;57.70;27.13;;;10.10;99.90;;;;;;5074501;28;20396;-70
2024/03/18 11:29:22;;;;;;;50.55;24.45;;;10.20;99.90;;;;;;5073909;28;20457;-72
2024/03/18 11:31:52;;;;;;;56.00;26.38;;;10.30;99.90;;;;;;5073700;28;20051;-72
2024/03/18 11:34:24;;;;;;;59.28;27.02;;;10.30;99.90;;;;;;5074014;28;20078;-72
2024/03/18 11:36:50;;;;;;;58.30;27.02;;;10.40;99.90;;;;;;5073950;28;20055;-73
2024/03/18 11:39:17;;;;;;;63.22;27.85;;;10.50;99.90;;;;;;5073287;28;20443;-73
2024/03/18 11:41:43;;;;;;;56.85;27.60;;;10.40;99.90;;;;;;5091742;28;20050;-71
2024/03/18 11:44:13;;;;;;;56.55;26.73;;;10.50;99.90;;;;;;5074395;28;20031;-72
2024/03/18 11:46:40;;;;;;;60.33;28.90;;;10.70;99.90;;;;;;5092052;28;20515;-73
2024/03/18 11:49:07;;;;;;;59.15;28.15;;;10.70;99.90;;;;;;5056805;28;20492;-72
2024/03/18 11:51:36;;;;;;;53.58;28.42;;;10.80;99.90;;;;;;5073689;28;20036;-72
2024/03/18 11:54:08;;;;;;;54.60;28.25;;;10.80;99.90;;;;;;5091635;28;20039;-73
2024/03/18 11:56:37;;;;;;;45.63;24.90;;;10.80;99.90;;;;;;5091793;28;20600;-73
2024/03/18 11:59:06;;;;;;;45.70;25.40;;;10.80;99.90;;;;;;5091526;28;20100;-73
2024/03/18 12:01:32;;;;;;;57.22;25.85;;;10.80;99.90;;;;;;5057643;28;20082;-73
2024/03/18 12:03:58;;;;;;;51.95;25.85;;;10.90;99.90;;;;;;5073863;28;20464;-73
2024/03/18 12:06:23;;;;;;;47.58;25.58;;;10.90;99.90;;;;;;5092250;28;20066;-72
2024/03/18 12:08:50;;;;;;;52.90;23.75;;;10.90;99.90;;;;;;5090588;28;20040;-73
2024/03/18 12:11:16;;;;;;;43.65;23.52;;;11.00;99.90;;;;;;5073780;28;20071;-72
2024/03/18 12:13:42;;;;;;;47.53;23.23;;;11.00;99.90;;;;;;5091511;28;20044;-73
2024/03/18 12:16:13;;;;;;;39.38;20.50;;;11.00;99.90;;;;;;5092240;28;20044;-72
2024/03/18 12:18:39;;;;;;;39.78;20.70;;;11.10;99.90;;;;;;5092224;28;20506;-72
2024/03/18 12:21:04;;;;;;;34.15;19.48;;;11.10;99.90;;;;;;5091550;28;20122;-72
2024/03/18 12:29:05;;;;;;;34.88;18.92;;;11.20;99.90;;;;;;5091083;28;20040;-72
2024/03/18 12:31:33;;;;;;;29.92;17.52;;;11.20;99.90;;;;;;5091466;28;20051;-73
2024/03/18 12:34:00;;;;;;;30.90;17.58;;;11.20;99.90;;;;;;5072836;28;20526;-72
2024/03/18 12:36:26;;;;;;;31.60;17.42;;;11.20;99.90;;;;;;5091650;28;20459;-72
2024/03/18 12:38:54;;;;;;;31.30;16.88;;;11.20;99.90;;;;;;5072982;28;20068;-72
2024/03/18 12:41:21;;;;;;;33.30;17.95;;;11.20;99.90;;;;;;5091561;28;20043;-72
2024/03/18 12:43:48;;;;;;;33.15;18.95;;;11.10;99.90;;;;;;5072533;28;20115;-72